Time;durP1;ratioP1;P1;durP2;ratioP2;P2;SDS_P1;SDS_P2;PMS_P1;PMS_P2;Temp;Humidity;BMP_temperature;BMP_pressure;BME280_temperature;BME280_humidity;BME280_pressure;Samples;Min_cycle;Max_cycle;Signal;HPM_P1;HPM_P2
2022/12/05 00:01:49;;;;;;;123.38;93.47;;;19.90;48.90;;;;;;4921677;55;21036;-36
2022/12/05 00:06:50;;;;;;;129.95;97.55;;;19.90;48.40;;;;;;4725942;55;21068;-31
2022/12/05 00:11:51;;;;;;;126.70;95.20;;;19.90;48.30;;;;;;4723393;55;21490;-35
2022/12/05 00:16:52;;;;;;;131.68;97.40;;;19.90;48.40;;;;;;5148343;55;21072;-34
2022/12/05 00:21:53;;;;;;;130.80;97.45;;;19.90;48.30;;;;;;4738509;55;21060;-35
2022/12/05 00:26:54;;;;;;;134.45;99.62;;;19.90;48.30;;;;;;4723618;55;21020;-32
2022/12/05 00:31:54;;;;;;;129.45;97.07;;;19.90;48.20;;;;;;5013245;55;21485;-31
2022/12/05 00:36:55;;;;;;;126.43;93.78;;;19.90;48.20;;;;;;5160248;55;20996;-34
2022/12/05 00:41:56;;;;;;;132.68;98.72;;;19.90;48.20;;;;;;5112287;55;21154;-32
2022/12/05 00:46:57;;;;;;;129.82;97.70;;;19.90;48.20;;;;;;4810884;55;21063;-34
2022/12/05 00:51:57;;;;;;;133.90;96.50;;;19.90;48.90;;;;;;4893195;55;21075;-33
2022/12/05 00:56:58;;;;;;;127.12;93.95;;;19.90;48.90;;;;;;4713586;55;21016;-36
2022/12/05 01:01:59;;;;;;;136.07;99.10;;;19.90;48.20;;;;;;4744552;55;21075;-31
2022/12/05 01:07:00;;;;;;;125.75;95.00;;;19.90;48.20;;;;;;4790854;55;21031;-31
2022/12/05 01:12:01;;;;;;;138.05;100.90;;;19.90;48.20;;;;;;4694718;59;21028;-32
2022/12/05 01:17:02;;;;;;;134.50;100.43;;;19.80;48.10;;;;;;4696232;59;21075;-33
2022/12/05 01:22:05;;;;;;;136.73;100.72;;;19.90;48.10;;;;;;4695899;59;21044;-34
2022/12/05 01:27:06;;;;;;;138.40;100.25;;;19.80;48.10;;;;;;4986249;55;21024;-31
2022/12/05 01:32:07;;;;;;;136.07;100.90;;;19.90;48.10;;;;;;4834647;55;21011;-33
2022/12/05 01:37:08;;;;;;;139.55;102.12;;;19.90;48.10;;;;;;4777499;55;21008;-35
2022/12/05 01:42:11;;;;;;;131.77;97.82;;;19.80;48.00;;;;;;4774541;55;21088;-34
2022/12/05 01:47:16;;;;;;;135.32;98.25;;;19.90;48.10;;;;;;4695892;59;21490;-35
2022/12/05 01:52:21;;;;;;;134.50;98.65;;;19.90;48.00;;;;;;4794327;55;21115;-34
2022/12/05 01:57:24;;;;;;;127.82;95.00;;;19.90;48.00;;;;;;5170871;55;21096;-33
2022/12/05 02:02:26;;;;;;;133.35;97.55;;;19.80;48.00;;;;;;4846497;55;20988;-34
2022/12/05 02:07:27;;;;;;;132.02;97.40;;;19.90;48.00;;;;;;4937555;55;21008;-32
2022/12/05 02:12:28;;;;;;;134.45;96.82;;;19.80;47.90;;;;;;4863276;55;21008;-33
2022/12/05 02:18:32;;;;;;;132.20;97.03;;;19.90;48.00;;;;;;4712220;55;21012;-35
2022/12/05 02:26:24;;;;;;;129.80;94.47;;;19.90;48.00;;;;;;4715178;55;20991;-33
2022/12/05 02:31:36;;;;;;;127.95;96.28;;;19.90;48.00;;;;;;5085490;55;20988;-33
2022/12/05 02:36:51;;;;;;;128.18;93.70;;;19.90;47.90;;;;;;5170141;55;20961;-35
2022/12/05 02:42:03;;;;;;;131.48;96.07;;;19.80;47.80;;;;;;4966141;55;21072;-30
2022/12/05 02:47:08;;;;;;;128.62;93.32;;;19.80;47.80;;;;;;4695263;59;21568;-33
2022/12/05 02:52:14;;;;;;;130.98;96.85;;;19.90;47.80;;;;;;4751007;55;21064;-32
2022/12/05 02:57:17;;;;;;;128.10;93.57;;;19.80;47.80;;;;;;4784037;55;21012;-31
2022/12/05 03:02:31;;;;;;;128.23;94.28;;;19.90;47.80;;;;;;4841615;55;21598;-34
2022/12/05 03:07:32;;;;;;;125.22;92.18;;;19.90;47.80;;;;;;5071963;55;21063;-32
2022/12/05 03:12:41;;;;;;;128.35;95.38;;;19.90;47.70;;;;;;4835395;55;21028;-28
2022/12/05 03:17:51;;;;;;;132.32;96.60;;;19.90;47.70;;;;;;4695432;59;22141;-35
2022/12/05 03:23:19;;;;;;;125.80;94.00;;;19.90;47.80;;;;;;4855605;55;20992;-33
2022/12/05 03:28:29;;;;;;;127.35;93.47;;;19.80;47.60;;;;;;4790080;55;21040;-31
2022/12/05 03:33:38;;;;;;;120.87;91.82;;;19.90;47.60;;;;;;4782301;55;21004;-32
2022/12/05 03:39:22;;;;;;;122.40;89.40;;;19.90;47.60;;;;;;4822262;55;21494;-29
2022/12/05 03:44:32;;;;;;;124.60;91.28;;;19.90;47.70;;;;;;4694495;59;21036;-34
2022/12/05 03:49:44;;;;;;;123.87;90.10;;;19.90;47.60;;;;;;5031919;55;21012;-35
2022/12/05 03:55:02;;;;;;;127.38;93.03;;;19.90;47.60;;;;;;5170017;55;21051;-34
2022/12/05 04:00:18;;;;;;;119.45;90.32;;;19.80;47.50;;;;;;4711633;55;21510;-28
2022/12/05 04:06:14;;;;;;;121.30;90.30;;;19.90;47.60;;;;;;4981272;55;21085;-34
2022/12/05 04:11:21;;;;;;;118.93;89.82;;;19.90;47.50;;;;;;4750057;55;21016;-34
2022/12/05 04:21:53;;;;;;;121.93;90.20;;;19.90;47.60;;;;;;4695041;55;21040;-30
2022/12/05 04:27:49;;;;;;;117.15;88.43;;;19.90;47.60;;;;;;4706464;55;21016;-32
2022/12/05 04:33:15;;;;;;;111.32;84.53;;;19.90;47.60;;;;;;4922612;55;21047;-29
2022/12/05 04:39:26;;;;;;;117.82;87.75;;;19.80;47.60;;;;;;4764568;55;21031;-30
2022/12/05 04:44:35;;;;;;;111.90;83.68;;;19.90;47.70;;;;;;5169702;55;21068;-34
2022/12/05 04:49:37;;;;;;;114.20;85.47;;;19.80;47.60;;;;;;4732902;55;21024;-34
2022/12/05 04:54:42;;;;;;;115.65;86.87;;;19.90;47.80;;;;;;4761840;55;21004;-32
2022/12/05 04:59:43;;;;;;;120.18;89.87;;;19.90;47.70;;;;;;5022578;55;21064;-34
2022/12/05 05:04:47;;;;;;;116.55;87.82;;;19.90;47.80;;;;;;5005526;55;21123;-33
2022/12/05 05:09:48;;;;;;;116.93;88.07;;;19.90;47.80;;;;;;4799448;55;21008;-27
2022/12/05 05:14:49;;;;;;;115.65;85.50;;;19.80;47.80;;;;;;4711002;55;21005;-33
2022/12/05 05:19:50;;;;;;;112.05;84.47;;;19.80;47.90;;;;;;4695230;59;21095;-28
2022/12/05 05:24:50;;;;;;;109.63;82.43;;;19.80;47.90;;;;;;4694917;59;21048;-28
2022/12/05 05:29:51;;;;;;;112.12;85.30;;;19.80;48.00;;;;;;4818719;55;21502;-32
2022/12/05 05:34:52;;;;;;;112.75;85.07;;;19.80;48.00;;;;;;4871618;55;21578;-33
2022/12/05 05:39:53;;;;;;;103.93;80.75;;;19.90;48.00;;;;;;4800528;55;21071;-28
2022/12/05 05:44:53;;;;;;;110.60;84.18;;;19.80;48.00;;;;;;4926201;55;21039;-26
2022/12/05 05:49:54;;;;;;;110.30;84.30;;;19.80;48.10;;;;;;4694813;59;21047;-31
2022/12/05 05:54:55;;;;;;;109.28;82.65;;;19.80;48.00;;;;;;4695011;59;21012;-32
2022/12/05 05:59:56;;;;;;;113.60;85.18;;;19.80;48.00;;;;;;4694856;59;21566;-31
2022/12/05 06:04:57;;;;;;;110.65;82.53;;;19.90;48.00;;;;;;4695493;59;21004;-30
2022/12/05 06:09:57;;;;;;;109.40;83.40;;;19.80;48.00;;;;;;4761516;55;21101;-31
2022/12/05 06:14:58;;;;;;;113.03;83.47;;;19.80;48.00;;;;;;4871486;55;21101;-32
2022/12/05 06:19:59;;;;;;;110.53;83.32;;;19.80;47.90;;;;;;4822700;55;21039;-29
2022/12/05 06:25:00;;;;;;;103.75;80.12;;;19.80;48.00;;;;;;4695300;59;21023;-32
2022/12/05 06:30:01;;;;;;;106.63;79.85;;;19.80;47.90;;;;;;4755340;55;21063;-32
2022/12/05 06:35:09;;;;;;;104.80;79.68;;;19.80;47.90;;;;;;4695430;59;21538;-28
2022/12/05 06:40:14;;;;;;;109.18;83.20;;;19.80;47.90;;;;;;4738360;55;21589;-28
2022/12/05 06:45:15;;;;;;;105.55;80.40;;;19.80;47.90;;;;;;4727680;55;21044;-34
2022/12/05 06:50:16;;;;;;;106.82;81.40;;;19.80;47.90;;;;;;4694972;59;21486;-32
2022/12/05 06:55:17;;;;;;;107.57;80.55;;;19.80;47.90;;;;;;4844977;55;21014;-28
2022/12/05 07:05:38;;;;;;;110.28;83.28;;;19.80;47.90;;;;;;4694881;55;21087;-33
2022/12/05 07:10:39;;;;;;;109.82;84.20;;;19.80;47.90;;;;;;4694451;59;21099;-29
2022/12/05 07:15:40;;;;;;;107.95;85.18;;;19.80;47.90;;;;;;4789461;55;21115;-32
2022/12/05 07:20:42;;;;;;;108.85;84.57;;;19.80;47.90;;;;;;4756375;55;21072;-31
2022/12/05 07:25:42;;;;;;;111.25;84.68;;;19.80;47.90;;;;;;4753625;55;21458;-29
2022/12/05 07:30:43;;;;;;;111.43;85.78;;;19.80;47.90;;;;;;4783355;55;21095;-28
2022/12/05 07:35:44;;;;;;;112.65;86.47;;;19.80;47.90;;;;;;4750718;55;21015;-31
2022/12/05 07:40:45;;;;;;;112.95;85.68;;;19.80;47.90;;;;;;4706578;55;21095;-32
2022/12/05 07:45:46;;;;;;;111.25;85.80;;;19.80;48.00;;;;;;4755400;55;21009;-29
2022/12/05 07:50:47;;;;;;;113.70;87.47;;;19.80;47.90;;;;;;4694261;59;21091;-27
2022/12/05 07:55:47;;;;;;;120.47;87.45;;;19.80;47.90;;;;;;4703025;55;21012;-37
2022/12/05 08:00:48;;;;;;;128.60;93.57;;;19.90;48.10;;;;;;4696866;55;21008;-33
2022/12/05 08:05:49;;;;;;;135.77;98.60;;;20.00;48.40;;;;;;4822004;55;21021;-29
2022/12/05 08:10:50;;;;;;;133.12;95.65;;;20.10;48.80;;;;;;4694373;56;21111;-25
2022/12/05 08:15:51;;;;;;;141.57;101.87;;;20.10;48.90;;;;;;4860602;55;21056;-27
2022/12/05 08:20:51;;;;;;;144.75;105.57;;;20.20;48.90;;;;;;4804842;55;21028;-27
2022/12/05 08:25:52;;;;;;;145.55;106.15;;;20.20;49.00;;;;;;4694422;59;21008;-34
2022/12/05 08:30:53;;;;;;;144.87;109.20;;;20.30;49.10;;;;;;4782166;55;21567;-26
2022/12/05 08:35:54;;;;;;;157.60;113.93;;;20.30;49.10;;;;;;4935391;55;21068;-28
2022/12/05 08:40:55;;;;;;;156.12;115.75;;;20.30;49.10;;;;;;4694724;59;21036;-28
2022/12/05 08:45:56;;;;;;;161.12;118.37;;;20.40;49.20;;;;;;4916800;55;21008;-31
2022/12/05 08:50:58;;;;;;;167.35;124.53;;;20.40;49.30;;;;;;5008199;55;21072;-31
2022/12/05 08:56:04;;;;;;;176.37;129.60;;;20.40;49.30;;;;;;4721800;55;21602;-25
2022/12/05 09:01:16;;;;;;;169.05;123.97;;;20.40;49.30;;;;;;4987555;55;21052;-32
2022/12/05 09:06:20;;;;;;;173.95;126.10;;;20.50;49.30;;;;;;4806393;55;21498;-27
2022/12/05 09:11:23;;;;;;;181.98;133.90;;;20.50;49.50;;;;;;4851070;55;21071;-28
2022/12/05 09:16:29;;;;;;;184.35;133.27;;;20.50;49.90;;;;;;4694565;55;21015;-27
2022/12/05 09:21:31;;;;;;;198.77;141.57;;;20.60;49.90;;;;;;4714131;55;21032;-27
2022/12/05 09:26:32;;;;;;;196.70;143.02;;;20.50;50.00;;;;;;4737650;55;21613;-27
2022/12/05 09:31:33;;;;;;;199.52;146.90;;;20.60;50.20;;;;;;4717419;55;21024;-26
2022/12/05 09:36:34;;;;;;;201.35;147.85;;;20.60;50.40;;;;;;4694316;59;21469;-32
2022/12/05 09:42:06;;;;;;;205.93;150.27;;;20.60;50.70;;;;;;4898650;55;21514;-33
2022/12/05 09:49:55;;;;;;;209.90;155.63;;;20.70;50.80;;;;;;4745804;55;21596;-30
2022/12/05 09:55:01;;;;;;;217.77;156.25;;;20.80;50.90;;;;;;4906369;55;21158;-46
2022/12/05 10:00:06;;;;;;;222.73;159.57;;;20.90;51.00;;;;;;4836339;55;21068;-38
2022/12/05 10:05:25;;;;;;;222.35;167.23;;;20.80;51.10;;;;;;4921232;55;21510;-28
2022/12/05 10:11:20;;;;;;;235.63;173.40;;;20.80;51.10;;;;;;4733644;55;21024;-35
2022/12/05 10:16:33;;;;;;;236.45;179.40;;;20.70;51.00;;;;;;4750535;55;21151;-29
2022/12/05 10:22:11;;;;;;;234.75;171.30;;;20.70;50.90;;;;;;4722741;55;21608;-28
